Salt Lake City International Airport
KSLC : now visible

Airfield :











YOU CAN JOIN US ON...

 
LOGIN :

Register | Disclaimer

   EN    FR    IT 

 









Legend :    VFR   Marginal VFR   IFR   Intensive IFR   Very Intensive IFR
Visi :
Ceiling :
>= 8 km
>= 3000ft
5 to 8 km
1000 to 3000 ft
1500m to 5 km
500 to 1000 ft
800 to 1500m
200 to 500 ft
< 800m
< 200 ft
Symbols :   Thunderstorms  Fog  Heavy snow  Heavy precipitations  Wind > 20 kt






- Airport Elevation : 4227 ft
- IATA code : SLC


KSLC - Salt Lake City International

CURRENT METAR :
  • 061454Z 01004KT 1 1/4SM R16L/6000VP6000FT BR OVC004 02/01 A3031 RMK AO2 TWR VIS 2 SLP261 T00170011 51007

EXPIRED METARs :
  • 061449Z 01004KT 1 1/2SM R16L/5500VP6000FT BR OVC004 02/01 A3030 RMK AO2 TWR VIS 2
  • 061416Z 36003KT 2SM BR BKN004 OVC050 02/01 A3030 RMK AO2 T00170006
  • 061401Z 00000KT 2SM BR FEW005 OVC050 02/02 A3030 RMK AO2 CIG 005 NW RNWY TWR VIS GTR THAN FOUR T00220017
  • 061254Z 00000KT 3SM BR BKN005 OVC050 02/01 A3028 RMK AO2 VIS 2 1/2 NW RNWY SLP253 TWR VIS GTR THAN FOUR T00220011

TAF KSLC
Valid from the 06 at 12:00 until the 07 at 18:00 UTC


061125Z 0612/0718 30003KT 2SM BR OVC005
FM061400 14003KT 1SM BR OVC004
FM061800 14003KT 3SM BR OVC008
FM062000 22005KT 4SM HZ SCT006 OVC020
FM070300 15006KT 3SM BR BKN010 OVC030



MET'MAP, your aeronautical weather chart ! - Copyright ORBIFLY December 2007 - Disclaimer

ORBIFLY MET'MAP TEAM :

Programming & Development : Alexandra Zaïnal
Concept & original design : Baudouin d'Aumeries
Assistance for programming : Marc-Olivier Méhu
Technical & hardware support : Manuel Goepfert

Contact : metmap@orbifly.com




SOURCES & CREDITS :

   NOAA       Earth
Advisory